AFZ48E EICK-EICK
Flight info
| Callsign | AFZ48E |
|---|---|
| Flight time | N/A |
| Altitude | 2500 |
| Route | EICK DCT MALLOW DCT ADARE DCT EINN DCT ADARE DCT MALLOW DCT EICK |
| Aircraft | DA42/L-SGY/A |
Departure
| Time | 2026-05-07 19:00 |
|---|---|
| Airport | Cork International Airport (EICK) |
Arrival
| Time | N/A |
|---|---|
| Airport | Cork International Airport (EICK) |
| Time | Latitude | Longitude | Altitude | Speed | Heading |
|---|---|---|---|---|---|
| 2026-05-07 18:39 | 51.83861 | -8.48575 | 499 ft | 0 kts | 63° |
| 2026-05-07 18:52 | 51.83850 | -8.48563 | 499 ft | 5 kts | 198° |
| 2026-05-07 18:52 | 51.83827 | -8.48621 | 499 ft | 8 kts | 251° |
| 2026-05-07 18:53 | 51.83810 | -8.48698 | 499 ft | 3 kts | 249° |
| 2026-05-07 18:53 | 51.83810 | -8.48699 | 499 ft | 0 kts | 250° |
| 2026-05-07 18:54 | 51.83808 | -8.48706 | 499 ft | 3 kts | 249° |
| 2026-05-07 18:54 | 51.83792 | -8.48778 | 499 ft | 8 kts | 251° |
| 2026-05-07 18:54 | 51.83772 | -8.48877 | 499 ft | 10 kts | 273° |
| 2026-05-07 18:55 | 51.83835 | -8.48937 | 499 ft | 13 kts | 340° |
| 2026-05-07 18:55 | 51.83932 | -8.48996 | 499 ft | 17 kts | 340° |
| 2026-05-07 18:55 | 51.84049 | -8.49065 | 499 ft | 19 kts | 340° |
| 2026-05-07 18:55 | 51.84178 | -8.49140 | 499 ft | 20 kts | 339° |
| 2026-05-07 18:56 | 51.84311 | -8.49220 | 499 ft | 20 kts | 345° |
| 2026-05-07 18:56 | 51.84370 | -8.49253 | 499 ft | 8 kts | 188° |
| 2026-05-07 18:56 | 51.84359 | -8.49247 | 499 ft | 0 kts | 156° |
| 2026-05-07 18:57 | 51.84357 | -8.49245 | 499 ft | 0 kts | 160° |
| 2026-05-07 18:59 | 51.84350 | -8.49241 | 499 ft | 11 kts | 160° |
| 2026-05-07 18:59 | 51.84086 | -8.49086 | 499 ft | 66 kts | 160° |
| 2026-05-07 18:59 | 51.83554 | -8.48746 | 573 ft | 90 kts | 157° |
| 2026-05-07 19:00 | 51.82968 | -8.48334 | 882 ft | 88 kts | 161° |
| 2026-05-07 19:00 | 51.82400 | -8.47984 | 1244 ft | 87 kts | 165° |
| 2026-05-07 19:00 | 51.81816 | -8.47814 | 1503 ft | 93 kts | 193° |
| 2026-05-07 19:00 | 51.81249 | -8.48457 | 1502 ft | 111 kts | 238° |
| 2026-05-07 19:01 | 51.80975 | -8.49702 | 1498 ft | 123 kts | 251° |
| 2026-05-07 19:01 | 51.80738 | -8.51052 | 1498 ft | 125 kts | 253° |
| 2026-05-07 19:01 | 51.80898 | -8.52428 | 1499 ft | 133 kts | 299° |
| 2026-05-07 19:01 | 51.81683 | -8.53249 | 1509 ft | 143 kts | 341° |
| 2026-05-07 19:02 | 51.82641 | -8.53673 | 1495 ft | 142 kts | 340° |
| 2026-05-07 19:02 | 51.83580 | -8.54106 | 1490 ft | 139 kts | 340° |
| 2026-05-07 19:02 | 51.84512 | -8.54528 | 1495 ft | 139 kts | 339° |
| 2026-05-07 19:02 | 51.85448 | -8.54945 | 1496 ft | 140 kts | 338° |
| 2026-05-07 19:03 | 51.86359 | -8.55492 | 1489 ft | 140 kts | 334° |
| 2026-05-07 19:03 | 51.87251 | -8.56089 | 1490 ft | 137 kts | 333° |
| 2026-05-07 19:03 | 51.88132 | -8.56678 | 1489 ft | 136 kts | 333° |
| 2026-05-07 19:03 | 51.89008 | -8.57268 | 1486 ft | 136 kts | 332° |
| 2026-05-07 19:04 | 51.89884 | -8.57842 | 1492 ft | 136 kts | 333° |
| 2026-05-07 19:04 | 51.90755 | -8.58407 | 1492 ft | 133 kts | 334° |
| 2026-05-07 19:04 | 51.91641 | -8.58855 | 1498 ft | 134 kts | 341° |
| 2026-05-07 19:04 | 51.92557 | -8.59230 | 1489 ft | 136 kts | 341° |
| 2026-05-07 19:05 | 51.93475 | -8.59599 | 1495 ft | 137 kts | 341° |
| 2026-05-07 19:05 | 51.94409 | -8.59938 | 1498 ft | 139 kts | 346° |
| 2026-05-07 19:05 | 51.95381 | -8.60095 | 1491 ft | 142 kts | 356° |
| 2026-05-07 19:05 | 51.96349 | -8.60049 | 1494 ft | 136 kts | 359° |
| 2026-05-07 19:06 | 51.97290 | -8.59995 | 1503 ft | 140 kts | 359° |
| 2026-05-07 19:06 | 51.99298 | -8.59966 | 1504 ft | 147 kts | 356° |
| 2026-05-07 19:06 | 52.00330 | -8.60001 | 1500 ft | 149 kts | 355° |
| 2026-05-07 19:07 | 52.01380 | -8.60024 | 1501 ft | 152 kts | 356° |
| 2026-05-07 19:07 | 52.02447 | -8.60073 | 1500 ft | 154 kts | 356° |
| 2026-05-07 19:07 | 52.03513 | -8.60252 | 1502 ft | 154 kts | 347° |
| 2026-05-07 19:07 | 52.04571 | -8.60556 | 1503 ft | 155 kts | 345° |
| 2026-05-07 19:08 | 52.05626 | -8.60932 | 1495 ft | 153 kts | 343° |
| 2026-05-07 19:08 | 52.06656 | -8.61294 | 1500 ft | 151 kts | 343° |
| 2026-05-07 19:08 | 52.07680 | -8.61689 | 1497 ft | 150 kts | 337° |
| 2026-05-07 19:08 | 52.08630 | -8.62356 | 1497 ft | 148 kts | 326° |
| 2026-05-07 19:09 | 52.09514 | -8.63179 | 1497 ft | 146 kts | 325° |
| 2026-05-07 19:09 | 52.10384 | -8.64031 | 1503 ft | 147 kts | 324° |
| 2026-05-07 19:09 | 52.11306 | -8.64788 | 1500 ft | 151 kts | 336° |
| 2026-05-07 19:09 | 52.12326 | -8.65218 | 1504 ft | 152 kts | 345° |
| 2026-05-07 19:10 | 52.13368 | -8.65538 | 1499 ft | 152 kts | 346° |
| 2026-05-07 19:10 | 52.14414 | -8.65799 | 1499 ft | 152 kts | 349° |
| 2026-05-07 19:10 | 52.15458 | -8.66009 | 1505 ft | 151 kts | 349° |
| 2026-05-07 19:10 | 52.16510 | -8.66224 | 1505 ft | 153 kts | 350° |
| 2026-05-07 19:11 | 52.17555 | -8.66517 | 1501 ft | 152 kts | 343° |
| 2026-05-07 19:11 | 52.18581 | -8.66924 | 1497 ft | 151 kts | 342° |
| 2026-05-07 19:11 | 52.19588 | -8.67346 | 1499 ft | 150 kts | 341° |
| 2026-05-07 19:11 | 52.20589 | -8.67734 | 1512 ft | 150 kts | 347° |
| 2026-05-07 19:12 | 52.21639 | -8.67753 | 1500 ft | 149 kts | 6° |
| 2026-05-07 19:12 | 52.22654 | -8.67471 | 1503 ft | 147 kts | 6° |
| 2026-05-07 19:12 | 52.23664 | -8.67263 | 1501 ft | 146 kts | 3° |
| 2026-05-07 19:12 | 52.24662 | -8.67153 | 1501 ft | 145 kts | 1° |
| 2026-05-07 19:13 | 52.25675 | -8.67053 | 1502 ft | 147 kts | 1° |
| 2026-05-07 19:13 | 52.26706 | -8.66947 | 1500 ft | 146 kts | 1° |
| 2026-05-07 19:13 | 52.27723 | -8.66854 | 1507 ft | 146 kts | 358° |
| 2026-05-07 19:13 | 52.28729 | -8.66861 | 1499 ft | 147 kts | 356° |
| 2026-05-07 19:14 | 52.29743 | -8.66937 | 1501 ft | 146 kts | 354° |
| 2026-05-07 19:14 | 52.30755 | -8.67026 | 1501 ft | 146 kts | 353° |
| 2026-05-07 19:14 | 52.31763 | -8.67162 | 1502 ft | 145 kts | 350° |
| 2026-05-07 19:14 | 52.32764 | -8.67359 | 1501 ft | 145 kts | 350° |
| 2026-05-07 19:15 | 52.33762 | -8.67554 | 1498 ft | 144 kts | 349° |
| 2026-05-07 19:15 | 52.34753 | -8.67764 | 1494 ft | 143 kts | 347° |
| 2026-05-07 19:15 | 52.35730 | -8.68039 | 1499 ft | 142 kts | 346° |
| 2026-05-07 19:15 | 52.36716 | -8.68231 | 1495 ft | 142 kts | 352° |
| 2026-05-07 19:16 | 52.37701 | -8.68376 | 1499 ft | 143 kts | 352° |
| 2026-05-07 19:16 | 52.38692 | -8.68518 | 1499 ft | 143 kts | 352° |
| 2026-05-07 19:16 | 52.39688 | -8.68659 | 1500 ft | 144 kts | 352° |
| 2026-05-07 19:16 | 52.40684 | -8.68848 | 1499 ft | 144 kts | 348° |
| 2026-05-07 19:17 | 52.41674 | -8.69101 | 1502 ft | 144 kts | 347° |
| 2026-05-07 19:17 | 52.42660 | -8.69372 | 1499 ft | 143 kts | 344° |
| 2026-05-07 19:17 | 52.43299 | -8.69632 | 1501 ft | 143 kts | 342° |
| 2026-05-07 19:17 | 52.44579 | -8.70199 | 1501 ft | 142 kts | 340° |
| 2026-05-07 19:18 | 52.45213 | -8.70468 | 1503 ft | 142 kts | 341° |
| 2026-05-07 19:18 | 52.46168 | -8.70856 | 1503 ft | 142 kts | 342° |
| 2026-05-07 19:18 | 52.47127 | -8.71240 | 1507 ft | 142 kts | 341° |
| 2026-05-07 19:18 | 52.48093 | -8.71621 | 1506 ft | 143 kts | 341° |
| 2026-05-07 19:19 | 52.49058 | -8.72003 | 1502 ft | 143 kts | 342° |
| 2026-05-07 19:19 | 52.50004 | -8.72481 | 1503 ft | 142 kts | 333° |
| 2026-05-07 19:19 | 52.50878 | -8.73209 | 1499 ft | 141 kts | 327° |
| 2026-05-07 19:19 | 52.51735 | -8.73985 | 1503 ft | 141 kts | 327° |
| 2026-05-07 19:20 | 52.52593 | -8.74764 | 1500 ft | 141 kts | 327° |
| 2026-05-07 19:20 | 52.53448 | -8.75534 | 1501 ft | 140 kts | 327° |
| 2026-05-07 19:20 | 52.54300 | -8.76304 | 1502 ft | 140 kts | 327° |
| 2026-05-07 19:20 | 52.55155 | -8.77075 | 1499 ft | 141 kts | 327° |
| 2026-05-07 19:21 | 52.56013 | -8.77854 | 1501 ft | 141 kts | 327° |
| 2026-05-07 19:21 | 52.56904 | -8.78509 | 1499 ft | 145 kts | 342° |
| 2026-05-07 19:21 | 52.57895 | -8.78818 | 1500 ft | 145 kts | 346° |
| 2026-05-07 19:21 | 52.58892 | -8.79085 | 1500 ft | 145 kts | 346° |
| 2026-05-07 19:22 | 52.59885 | -8.79354 | 1494 ft | 143 kts | 346° |
| 2026-05-07 19:22 | 52.60863 | -8.79591 | 1496 ft | 142 kts | 349° |
| 2026-05-07 19:22 | 52.61851 | -8.79727 | 1496 ft | 143 kts | 352° |
| 2026-05-07 19:22 | 52.62830 | -8.79905 | 1497 ft | 141 kts | 349° |
| 2026-05-07 19:23 | 52.63807 | -8.80112 | 1500 ft | 142 kts | 348° |
| 2026-05-07 19:23 | 52.64797 | -8.80311 | 1499 ft | 143 kts | 348° |
| 2026-05-07 19:23 | 52.65788 | -8.80516 | 1497 ft | 143 kts | 348° |
| 2026-05-07 19:23 | 52.66765 | -8.80789 | 1498 ft | 141 kts | 346° |
| 2026-05-07 19:24 | 52.67721 | -8.81070 | 1499 ft | 139 kts | 346° |
| 2026-05-07 19:24 | 52.68665 | -8.81347 | 1501 ft | 137 kts | 345° |
| 2026-05-07 19:24 | 52.69596 | -8.81603 | 1504 ft | 135 kts | 346° |
| 2026-05-07 19:24 | 52.70520 | -8.81853 | 1499 ft | 134 kts | 346° |
| 2026-05-07 19:25 | 52.71416 | -8.82099 | 1489 ft | 126 kts | 345° |
| 2026-05-07 19:25 | 52.72183 | -8.82604 | 1491 ft | 114 kts | 324° |
| 2026-05-07 19:25 | 52.72848 | -8.83265 | 1491 ft | 110 kts | 323° |
| 2026-05-07 19:25 | 52.73517 | -8.83986 | 1273 ft | 122 kts | 313° |
| 2026-05-07 19:26 | 52.73903 | -8.85228 | 999 ft | 126 kts | 271° |
| 2026-05-07 19:26 | 52.73614 | -8.86411 | 981 ft | 101 kts | 225° |
| 2026-05-07 19:26 | 52.73016 | -8.86797 | 963 ft | 88 kts | 204° |
| 2026-05-07 19:26 | 52.72567 | -8.87485 | 777 ft | 91 kts | 233° |
| 2026-05-07 19:27 | 52.72189 | -8.88283 | 609 ft | 85 kts | 233° |
| 2026-05-07 19:27 | 52.71822 | -8.89050 | 429 ft | 84 kts | 231° |
| 2026-05-07 19:27 | 52.71476 | -8.89791 | 253 ft | 82 kts | 233° |
| 2026-05-07 19:27 | 52.71129 | -8.90531 | 116 ft | 82 kts | 229° |
| 2026-05-07 19:28 | 52.70800 | -8.91218 | 20 ft | 71 kts | 231° |
| 2026-05-07 19:28 | 52.70493 | -8.91865 | 35 ft | 83 kts | 231° |
| 2026-05-07 19:28 | 52.70138 | -8.92620 | 204 ft | 82 kts | 229° |
| 2026-05-07 19:28 | 52.69781 | -8.93380 | 304 ft | 88 kts | 232° |
| 2026-05-07 19:29 | 52.69409 | -8.94208 | 510 ft | 88 kts | 235° |
| 2026-05-07 19:29 | 52.69057 | -8.94989 | 830 ft | 82 kts | 236° |
| 2026-05-07 19:29 | 52.68695 | -8.95724 | 1004 ft | 87 kts | 234° |
| 2026-05-07 19:29 | 52.68297 | -8.96604 | 1004 ft | 103 kts | 235° |
| 2026-05-07 19:30 | 52.67872 | -8.97611 | 989 ft | 110 kts | 245° |
| 2026-05-07 19:30 | 52.67884 | -8.98870 | 1003 ft | 118 kts | 292° |
| 2026-05-07 19:30 | 52.68513 | -8.99800 | 1001 ft | 128 kts | 328° |
| 2026-05-07 19:30 | 52.69314 | -9.00477 | 998 ft | 131 kts | 328° |
| 2026-05-07 19:31 | 52.70136 | -9.01138 | 997 ft | 132 kts | 329° |
| 2026-05-07 19:31 | 52.71030 | -9.01492 | 993 ft | 139 kts | 4° |
| 2026-05-07 19:31 | 52.71874 | -9.00736 | 1006 ft | 142 kts | 44° |
| 2026-05-07 19:31 | 52.72545 | -8.99514 | 995 ft | 145 kts | 47° |
| 2026-05-07 19:32 | 52.73214 | -8.98291 | 995 ft | 143 kts | 45° |
| 2026-05-07 19:32 | 52.73902 | -8.97101 | 996 ft | 143 kts | 44° |
| 2026-05-07 19:32 | 52.74581 | -8.95912 | 989 ft | 142 kts | 47° |
| 2026-05-07 19:32 | 52.75234 | -8.94692 | 1000 ft | 142 kts | 47° |
| 2026-05-07 19:33 | 52.75877 | -8.93459 | 995 ft | 140 kts | 48° |
| 2026-05-07 19:33 | 52.76496 | -8.92286 | 992 ft | 132 kts | 47° |
| 2026-05-07 19:33 | 52.77070 | -8.91169 | 1009 ft | 124 kts | 47° |
| 2026-05-07 19:33 | 52.77639 | -8.90071 | 1133 ft | 128 kts | 47° |
| 2026-05-07 19:34 | 52.78239 | -8.88963 | 1305 ft | 128 kts | 45° |
| 2026-05-07 19:34 | 52.78832 | -8.87885 | 1477 ft | 130 kts | 45° |
| 2026-05-07 19:34 | 52.79462 | -8.86736 | 1500 ft | 140 kts | 46° |
| 2026-05-07 19:34 | 52.80143 | -8.85522 | 1507 ft | 148 kts | 46° |
| 2026-05-07 19:35 | 52.80622 | -8.84000 | 1504 ft | 155 kts | 84° |
| 2026-05-07 19:35 | 52.80380 | -8.82371 | 1503 ft | 141 kts | 130° |
| 2026-05-07 19:35 | 52.79684 | -8.81372 | 1504 ft | 128 kts | 154° |
| 2026-05-07 19:35 | 52.78936 | -8.80681 | 1497 ft | 118 kts | 157° |
| 2026-05-07 19:36 | 52.78239 | -8.80051 | 1493 ft | 110 kts | 157° |
| 2026-05-07 19:36 | 52.77582 | -8.79458 | 1488 ft | 106 kts | 158° |
| 2026-05-07 19:36 | 52.76946 | -8.78925 | 1486 ft | 99 kts | 174° |
| 2026-05-07 19:36 | 52.76337 | -8.79079 | 1498 ft | 85 kts | 220° |
| 2026-05-07 19:37 | 52.75984 | -8.79827 | 1503 ft | 82 kts | 238° |
| 2026-05-07 19:37 | 52.75668 | -8.80626 | 1500 ft | 83 kts | 237° |
| 2026-05-07 19:37 | 52.75343 | -8.81405 | 1502 ft | 84 kts | 237° |
| 2026-05-07 19:37 | 52.74975 | -8.82249 | 1392 ft | 97 kts | 235° |
| 2026-05-07 19:38 | 52.74550 | -8.83199 | 1249 ft | 107 kts | 236° |
| 2026-05-07 19:38 | 52.74107 | -8.84178 | 1097 ft | 106 kts | 235° |
| 2026-05-07 19:38 | 52.73678 | -8.85097 | 946 ft | 95 kts | 234° |
| 2026-05-07 19:38 | 52.73291 | -8.85923 | 812 ft | 87 kts | 233° |
| 2026-05-07 19:39 | 52.72921 | -8.86706 | 690 ft | 88 kts | 233° |
| 2026-05-07 19:39 | 52.72553 | -8.87486 | 578 ft | 85 kts | 234° |
| 2026-05-07 19:39 | 52.72179 | -8.88282 | 452 ft | 90 kts | 233° |
| 2026-05-07 19:39 | 52.71804 | -8.89074 | 355 ft | 86 kts | 235° |
| 2026-05-07 19:40 | 52.71447 | -8.89812 | 214 ft | 82 kts | 236° |
| 2026-05-07 19:40 | 52.71120 | -8.90539 | 90 ft | 77 kts | 234° |
| 2026-05-07 19:40 | 52.70798 | -8.91216 | 22 ft | 69 kts | 236° |
| 2026-05-07 19:40 | 52.70530 | -8.91791 | 22 ft | 69 kts | 232° |
| 2026-05-07 19:41 | 52.70207 | -8.92463 | 149 ft | 75 kts | 238° |
| 2026-05-07 19:41 | 52.69859 | -8.93189 | 218 ft | 86 kts | 231° |
| 2026-05-07 19:41 | 52.69488 | -8.93928 | 417 ft | 84 kts | 237° |
| 2026-05-07 19:41 | 52.69158 | -8.94716 | 793 ft | 81 kts | 237° |
| 2026-05-07 19:42 | 52.68842 | -8.95510 | 992 ft | 95 kts | 238° |
| 2026-05-07 19:42 | 52.68440 | -8.96541 | 1001 ft | 118 kts | 242° |
| 2026-05-07 19:42 | 52.68410 | -8.97951 | 1009 ft | 135 kts | 288° |
| 2026-05-07 19:42 | 52.69071 | -8.99078 | 998 ft | 143 kts | 326° |
| 2026-05-07 19:43 | 52.69927 | -8.99911 | 1000 ft | 143 kts | 324° |
| 2026-05-07 19:43 | 52.70760 | -9.00758 | 994 ft | 142 kts | 324° |
| 2026-05-07 19:43 | 52.71716 | -9.01154 | 987 ft | 148 kts | 4° |
| 2026-05-07 19:43 | 52.72626 | -9.00310 | 1004 ft | 154 kts | 46° |
| 2026-05-07 19:44 | 52.73288 | -8.98926 | 1008 ft | 154 kts | 51° |
| 2026-05-07 19:44 | 52.73930 | -8.97502 | 1005 ft | 155 kts | 52° |
| 2026-05-07 19:44 | 52.74558 | -8.96102 | 1003 ft | 153 kts | 53° |
| 2026-05-07 19:44 | 52.75224 | -8.94721 | 1007 ft | 154 kts | 49° |
| 2026-05-07 19:45 | 52.75897 | -8.93349 | 1005 ft | 153 kts | 49° |
| 2026-05-07 19:45 | 52.76570 | -8.91979 | 999 ft | 153 kts | 50° |
| 2026-05-07 19:45 | 52.77237 | -8.90613 | 1003 ft | 153 kts | 49° |
| 2026-05-07 19:45 | 52.77934 | -8.89278 | 996 ft | 154 kts | 47° |
| 2026-05-07 19:46 | 52.78647 | -8.87952 | 1004 ft | 155 kts | 47° |
| 2026-05-07 19:46 | 52.79355 | -8.86647 | 1008 ft | 149 kts | 46° |
| 2026-05-07 19:46 | 52.79745 | -8.85115 | 1004 ft | 145 kts | 91° |
| 2026-05-07 19:46 | 52.79420 | -8.83658 | 1001 ft | 132 kts | 137° |
| 2026-05-07 19:47 | 52.78707 | -8.82798 | 1007 ft | 123 kts | 153° |
| 2026-05-07 19:47 | 52.77996 | -8.82081 | 996 ft | 116 kts | 153° |
| 2026-05-07 19:47 | 52.77343 | -8.81424 | 990 ft | 106 kts | 154° |
| 2026-05-07 19:47 | 52.76759 | -8.80796 | 997 ft | 95 kts | 152° |
| 2026-05-07 19:48 | 52.76172 | -8.80265 | 1004 ft | 99 kts | 174° |
| 2026-05-07 19:48 | 52.75526 | -8.80458 | 1008 ft | 96 kts | 219° |
| 2026-05-07 19:48 | 52.75187 | -8.81374 | 1010 ft | 96 kts | 252° |
| 2026-05-07 19:48 | 52.74848 | -8.82329 | 1008 ft | 98 kts | 239° |
| 2026-05-07 19:49 | 52.74466 | -8.83265 | 1005 ft | 99 kts | 237° |
| 2026-05-07 19:49 | 52.74086 | -8.84148 | 1003 ft | 89 kts | 235° |
| 2026-05-07 19:49 | 52.73720 | -8.84950 | 974 ft | 88 kts | 234° |
| 2026-05-07 19:49 | 52.73340 | -8.85787 | 830 ft | 93 kts | 234° |
| 2026-05-07 19:50 | 52.72948 | -8.86643 | 714 ft | 96 kts | 234° |
| 2026-05-07 19:50 | 52.72543 | -8.87503 | 569 ft | 94 kts | 234° |
| 2026-05-07 19:50 | 52.72137 | -8.88326 | 476 ft | 90 kts | 235° |
| 2026-05-07 19:50 | 52.71773 | -8.89141 | 350 ft | 85 kts | 238° |
| 2026-05-07 19:51 | 52.71439 | -8.89887 | 212 ft | 81 kts | 233° |
| 2026-05-07 19:51 | 52.71087 | -8.90607 | 96 ft | 78 kts | 234° |
| 2026-05-07 19:51 | 52.70768 | -8.91281 | 20 ft | 69 kts | 236° |
| 2026-05-07 19:51 | 52.70529 | -8.91792 | 22 ft | 43 kts | 232° |
| 2026-05-07 19:52 | 52.70375 | -8.92116 | 27 ft | 35 kts | 231° |
| 2026-05-07 19:52 | 52.70225 | -8.92436 | 27 ft | 36 kts | 232° |
| 2026-05-07 19:52 | 52.70093 | -8.92714 | 28 ft | 24 kts | 232° |
| 2026-05-07 19:52 | 52.70005 | -8.92900 | 31 ft | 18 kts | 233° |
| 2026-05-07 19:53 | 52.69916 | -8.92951 | 30 ft | 13 kts | 139° |
| 2026-05-07 19:53 | 52.69814 | -8.92790 | 18 ft | 24 kts | 134° |
| 2026-05-07 19:53 | 52.69708 | -8.92617 | 17 ft | 20 kts | 135° |
| 2026-05-07 19:53 | 52.69614 | -8.92464 | 17 ft | 18 kts | 136° |
| 2026-05-07 19:54 | 52.69532 | -8.92313 | 17 ft | 17 kts | 118° |
| 2026-05-07 19:54 | 52.69485 | -8.92133 | 17 ft | 17 kts | 108° |
| 2026-05-07 19:54 | 52.69467 | -8.92016 | 17 ft | 11 kts | 104° |
| 2026-05-07 19:54 | 52.69447 | -8.91885 | 17 ft | 13 kts | 107° |
| 2026-05-07 19:55 | 52.69402 | -8.91763 | 17 ft | 13 kts | 155° |
| 2026-05-07 19:55 | 52.69343 | -8.91734 | 17 ft | 7 kts | 162° |
| 2026-05-07 19:55 | 52.69303 | -8.91680 | 17 ft | 9 kts | 130° |
| 2026-05-07 19:55 | 52.69259 | -8.91592 | 17 ft | 11 kts | 124° |
| 2026-05-07 19:56 | 52.69267 | -8.91497 | 17 ft | 9 kts | 107° |
| 2026-05-07 19:56 | 52.69239 | -8.91397 | 17 ft | 9 kts | 128° |
| 2026-05-07 19:56 | 52.69244 | -8.91352 | 17 ft | 5 kts | 36° |
| 2026-05-07 19:56 | 52.69245 | -8.91351 | 17 ft | 0 kts | 36° |